Time;durP1;ratioP1;P1;durP2;ratioP2;P2;SDS_P1;SDS_P2;PMS_P1;PMS_P2;Temp;Humidity;BMP_temperature;BMP_pressure;BME280_temperature;BME280_humidity;BME280_pressure;Samples;Min_cycle;Max_cycle;Signal;HPM_P1;HPM_P2
2022/09/21 00:00:29;;;;;;;11.53;8.30;;;;;7.60;102081.00;;;;13041156;22;20603;-74
2022/09/21 00:05:31;;;;;;;16.07;8.43;;;;;7.50;102085.00;;;;13063608;22;20225;-74
2022/09/21 00:10:33;;;;;;;12.23;8.63;;;;;7.50;102073.00;;;;13085777;22;20788;-74
2022/09/21 00:15:38;;;;;;;11.97;8.20;;;;;7.40;102083.00;;;;13088085;22;20243;-74
2022/09/21 00:20:42;;;;;;;14.67;8.47;;;;;7.40;102080.00;;;;13015630;22;20250;-74
2022/09/21 00:25:43;;;;;;;11.27;7.30;;;;;7.40;102081.00;;;;13062046;22;20187;-74
2022/09/21 00:30:50;;;;;;;13.90;6.90;;;;;7.30;102081.00;;;;13062620;22;20166;-74
2022/09/21 00:35:51;;;;;;;13.77;7.47;;;;;7.30;102082.00;;;;13014826;22;20171;-74
2022/09/21 00:40:53;;;;;;;12.50;8.37;;;;;7.20;102083.00;;;;13113775;22;20183;-74
2022/09/21 00:46:01;;;;;;;9.50;7.93;;;;;7.10;102092.00;;;;13087198;22;20626;-74
2022/09/21 00:51:06;;;;;;;12.40;7.57;;;;;7.10;102086.00;;;;13041105;22;20260;-74
2022/09/21 00:56:09;;;;;;;13.90;7.90;;;;;7.10;102084.00;;;;13039833;22;20205;-74
2022/09/21 01:01:17;;;;;;;15.40;8.27;;;;;7.00;102089.00;;;;13041254;22;20213;-74
2022/09/21 01:06:20;;;;;;;11.03;7.97;;;;;7.00;102081.00;;;;13015735;22;20186;-76
2022/09/21 01:11:26;;;;;;;12.87;8.77;;;;;7.00;102084.00;;;;13039328;22;20218;-76
2022/09/21 01:17:01;;;;;;;14.10;8.07;;;;;7.00;102089.00;;;;13039265;22;20209;-76
2022/09/21 01:22:16;;;;;;;11.97;7.93;;;;;6.90;102083.00;;;;13039417;22;20166;-76
2022/09/21 01:27:34;;;;;;;11.90;7.87;;;;;6.90;102091.00;;;;13036918;22;20710;-76
2022/09/21 01:33:02;;;;;;;16.33;10.27;;;;;6.90;102095.00;;;;13060343;22;20183;-76
2022/09/21 01:38:44;;;;;;;13.80;9.23;;;;;6.80;102095.00;;;;13038608;22;20623;-76
2022/09/21 01:43:50;;;;;;;12.93;8.73;;;;;6.70;102086.00;;;;13002162;22;20179;-76
2022/09/21 01:48:57;;;;;;;14.60;8.57;;;;;6.70;102090.00;;;;13036394;22;20204;-76
2022/09/21 01:54:06;;;;;;;14.30;8.47;;;;;6.70;102083.00;;;;13014943;22;20179;-76
2022/09/21 01:59:22;;;;;;;11.23;8.73;;;;;6.60;102087.00;;;;13038066;22;20176;-76
2022/09/21 02:04:24;;;;;;;12.60;8.37;;;;;6.60;102078.00;;;;13039492;22;20603;-76
2022/09/21 02:09:26;;;;;;;11.53;7.53;;;;;6.60;102083.00;;;;13062166;22;20193;-76
2022/09/21 02:14:28;;;;;;;11.53;7.17;;;;;6.50;102088.00;;;;13012106;22;20172;-76
2022/09/21 02:19:53;;;;;;;14.97;7.80;;;;;6.50;102086.00;;;;13084572;22;20255;-76
2022/09/21 02:25:47;;;;;;;11.93;8.13;;;;;6.40;102090.00;;;;13062519;22;20175;-76
2022/09/21 02:31:01;;;;;;;13.90;7.50;;;;;6.40;102085.00;;;;13006578;22;20168;-76
2022/09/21 02:36:20;;;;;;;11.00;7.30;;;;;6.30;102091.00;;;;13014350;22;20602;-76
2022/09/21 02:41:47;;;;;;;11.10;7.83;;;;;6.30;102077.00;;;;13035296;22;20267;-76
2022/09/21 02:47:02;;;;;;;18.33;7.77;;;;;6.30;102079.00;;;;13013354;22;20187;-76
2022/09/21 02:52:15;;;;;;;9.83;7.40;;;;;6.20;102069.00;;;;13087519;22;20705;-76
2022/09/21 02:57:20;;;;;;;12.60;7.53;;;;;6.20;102077.00;;;;13035582;22;20656;-76
2022/09/21 03:02:22;;;;;;;10.73;7.10;;;;;6.10;102068.00;;;;13038699;22;20654;-76
2022/09/21 03:07:23;;;;;;;12.17;7.10;;;;;6.10;102062.00;;;;13038409;22;20238;-76
2022/09/21 03:12:25;;;;;;;10.50;7.00;;;;;6.10;102072.00;;;;13060369;22;20162;-76
2022/09/21 03:17:26;;;;;;;10.80;6.97;;;;;6.10;102072.00;;;;13038654;22;20256;-76
2022/09/21 03:22:27;;;;;;;9.93;7.13;;;;;6.00;102072.00;;;;13062456;22;20322;-76
2022/09/21 03:27:28;;;;;;;11.37;7.87;;;;;6.00;102078.00;;;;13037220;22;20298;-76
2022/09/21 03:32:30;;;;;;;12.17;8.73;;;;;6.00;102080.00;;;;13085297;22;20171;-76
2022/09/21 03:37:31;;;;;;;10.63;7.77;;;;;6.00;102088.00;;;;13038824;22;20170;-76
2022/09/21 03:42:33;;;;;;;13.63;7.10;;;;;6.00;102086.00;;;;13038098;22;20204;-76
2022/09/21 03:47:35;;;;;;;10.20;7.10;;;;;6.00;102090.00;;;;13010150;22;20195;-76
2022/09/21 03:52:37;;;;;;;8.27;6.30;;;;;5.90;102096.00;;;;13085135;22;20580;-76
2022/09/21 03:57:38;;;;;;;11.23;7.80;;;;;5.90;102098.00;;;;13083332;22;20159;-76
2022/09/21 04:02:40;;;;;;;12.83;7.60;;;;;5.80;102094.00;;;;13034525;22;20178;-76
2022/09/21 04:07:44;;;;;;;11.33;7.37;;;;;5.80;102095.00;;;;13111997;22;20230;-75
2022/09/21 04:12:46;;;;;;;11.17;7.47;;;;;5.80;102085.00;;;;13035587;22;20205;-76
2022/09/21 04:17:50;;;;;;;15.07;7.80;;;;;5.80;102073.00;;;;13014847;22;20171;-76
2022/09/21 04:22:52;;;;;;;16.63;7.57;;;;;5.70;102082.00;;;;13033356;22;20213;-76
2022/09/21 04:27:53;;;;;;;16.13;7.17;;;;;5.60;102084.00;;;;13115138;22;20187;-76
2022/09/21 04:32:54;;;;;;;15.77;7.40;;;;;5.60;102090.00;;;;13088022;22;20163;-76
2022/09/21 04:37:55;;;;;;;12.60;8.47;;;;;5.60;102091.00;;;;13041728;22;20194;-75
2022/09/21 04:42:57;;;;;;;10.30;7.33;;;;;5.60;102088.00;;;;13012783;22;20171;-76
2022/09/21 04:47:58;;;;;;;14.07;8.60;;;;;5.60;102094.00;;;;13085487;22;20190;-76
2022/09/21 04:52:59;;;;;;;16.80;8.90;;;;;5.70;102085.00;;;;13038412;22;20633;-76
2022/09/21 04:58:00;;;;;;;13.13;8.30;;;;;5.70;102084.00;;;;13039770;22;20167;-76
2022/09/21 05:03:02;;;;;;;19.17;8.70;;;;;5.70;102090.00;;;;13083120;22;20216;-76
2022/09/21 05:08:03;;;;;;;12.17;8.37;;;;;5.70;102089.00;;;;13029370;22;20218;-76
2022/09/21 05:13:04;;;;;;;13.07;9.00;;;;;5.70;102105.00;;;;13057372;22;20182;-76
2022/09/21 05:18:05;;;;;;;12.77;8.73;;;;;5.70;102105.00;;;;13051845;22;20780;-76
2022/09/21 05:23:06;;;;;;;11.97;8.10;;;;;5.70;102105.00;;;;13057080;22;20156;-76
2022/09/21 05:28:08;;;;;;;11.47;9.10;;;;;5.70;102101.00;;;;13013154;22;20240;-76
2022/09/21 05:33:14;;;;;;;12.40;8.33;;;;;5.70;102108.00;;;;13011468;22;20658;-76
2022/09/21 05:38:19;;;;;;;14.40;9.27;;;;;5.70;102103.00;;;;12988050;22;20172;-76
2022/09/21 05:43:20;;;;;;;13.90;8.80;;;;;5.70;102115.00;;;;13037083;22;20172;-76
2022/09/21 05:48:46;;;;;;;10.80;8.13;;;;;5.80;102122.00;;;;13078331;22;20228;-76
2022/09/21 05:54:03;;;;;;;13.97;8.90;;;;;5.90;102108.00;;;;13039292;22;20174;-76
2022/09/21 05:59:25;;;;;;;16.60;10.57;;;;;6.10;102114.00;;;;13057098;22;20156;-76
2022/09/21 06:04:26;;;;;;;21.17;13.07;;;;;6.40;102113.00;;;;13015578;22;20608;-76
2022/09/21 06:09:27;;;;;;;21.20;12.33;;;;;6.80;102118.00;;;;13086006;22;20266;-77
2022/09/21 06:14:28;;;;;;;19.13;12.47;;;;;7.10;102111.00;;;;13039935;22;20171;-76
2022/09/21 06:19:30;;;;;;;15.37;11.90;;;;;7.20;102120.00;;;;13056954;22;20655;-76
2022/09/21 06:24:31;;;;;;;15.50;11.90;;;;;7.20;102125.00;;;;13036510;22;20167;-76
2022/09/21 06:29:32;;;;;;;19.53;11.20;;;;;7.30;102120.00;;;;13010909;22;20191;-76
2022/09/21 06:34:33;;;;;;;19.63;11.00;;;;;7.30;102122.00;;;;13010377;22;20719;-76
2022/09/21 06:39:34;;;;;;;17.90;11.30;;;;;7.40;102130.00;;;;12986481;22;20495;-77
2022/09/21 06:44:35;;;;;;;14.63;10.27;;;;;7.60;102127.00;;;;13083814;22;20220;-77
2022/09/21 06:49:37;;;;;;;17.17;11.00;;;;;7.90;102121.00;;;;13058704;22;20223;-76
2022/09/21 06:54:43;;;;;;;18.53;10.63;;;;;8.20;102114.00;;;;13077188;22;20163;-77
2022/09/21 06:59:44;;;;;;;16.73;11.27;;;;;8.50;102131.00;;;;13035658;22;20181;-76
2022/09/21 07:04:46;;;;;;;20.07;11.80;;;;;8.80;102122.00;;;;13038664;22;20816;-76
2022/09/21 07:09:47;;;;;;;16.20;10.83;;;;;9.30;102130.00;;;;13085513;22;20183;-76
2022/09/21 07:15:09;;;;;;;15.07;10.87;;;;;9.70;102141.00;;;;13036654;22;20171;-76
2022/09/21 07:20:11;;;;;;;17.93;10.80;;;;;10.00;102141.00;;;;13032812;22;20167;-76
2022/09/21 07:25:13;;;;;;;19.10;10.73;;;;;10.30;102147.00;;;;13058427;22;20179;-76
2022/09/21 07:30:14;;;;;;;15.80;11.90;;;;;10.50;102144.00;;;;12986158;22;20202;-76
2022/09/21 07:35:16;;;;;;;17.10;13.03;;;;;10.70;102149.00;;;;13081367;22;20464;-76
2022/09/21 07:40:17;;;;;;;18.40;13.07;;;;;10.90;102141.00;;;;13059413;22;20317;-77
2022/09/21 07:45:25;;;;;;;19.83;14.43;;;;;11.30;102142.00;;;;12988541;22;20197;-77
2022/09/21 07:50:26;;;;;;;21.93;15.53;;;;;11.50;102141.00;;;;13059078;22;20656;-76
2022/09/21 07:55:28;;;;;;;20.70;16.63;;;;;11.90;102150.00;;;;13032442;22;20201;-77
2022/09/21 08:00:31;;;;;;;20.37;14.23;;;;;12.30;102151.00;;;;13028571;22;20205;-77
2022/09/21 08:05:32;;;;;;;21.47;16.37;;;;;12.60;102144.00;;;;13058833;22;20183;-77
2022/09/21 08:10:34;;;;;;;20.97;16.47;;;;;12.90;102144.00;;;;13064913;22;20195;-77
2022/09/21 08:15:36;;;;;;;16.97;14.80;;;;;13.10;102148.00;;;;13040083;22;20190;-77
2022/09/21 08:20:54;;;;;;;16.93;14.60;;;;;13.40;102148.00;;;;13040681;22;20255;-77
2022/09/21 08:26:00;;;;;;;22.30;16.13;;;;;13.80;102156.00;;;;13063544;22;20195;-77
2022/09/21 08:31:07;;;;;;;18.40;13.83;;;;;14.20;102149.00;;;;13038757;22;20245;-77
2022/09/21 08:36:09;;;;;;;14.20;12.20;;;;;14.50;102157.00;;;;13039238;22;20224;-77
2022/09/21 08:41:21;;;;;;;23.70;11.05;;;;;15.10;102165.00;;;;13011200;22;20174;-77
2022/09/21 08:46:26;;;;;;;12.30;9.55;;;;;15.70;102157.00;;;;13040185;22;20198;-77
2022/09/21 08:51:34;;;;;;;14.23;8.43;;;;;16.20;102159.00;;;;13034912;22;20236;-77
2022/09/21 08:56:36;;;;;;;19.90;7.90;;;;;16.70;102163.00;;;;13039560;22;20726;-77
2022/09/21 09:02:09;;;;;;;9.60;6.95;;;;;17.10;102169.00;;;;13085811;22;20169;-77
2022/09/21 09:07:44;;;;;;;9.77;3.60;;;;;17.40;102186.00;;;;13087764;22;20697;-77
2022/09/21 09:13:07;;;;;;;8.90;5.55;;;;;17.70;102181.00;;;;13064630;22;20603;-77
2022/09/21 09:18:16;;;;;;;7.40;4.72;;;;;17.90;102178.00;;;;13110227;22;20217;-78
2022/09/21 09:23:28;;;;;;;6.53;3.85;;;;;18.30;102189.00;;;;13044250;22;20603;-77
2022/09/21 09:28:37;;;;;;;10.07;4.60;;;;;18.50;102185.00;;;;13016202;22;20195;-78
2022/09/21 09:33:48;;;;;;;6.63;3.85;;;;;18.80;102183.00;;;;13044143;22;20233;-78
2022/09/21 09:39:08;;;;;;;7.03;2.40;;;;;19.20;102185.00;;;;13042845;22;20206;-78
2022/09/21 09:44:22;;;;;;;4.90;2.45;;;;;19.50;102191.00;;;;13041901;22;20191;-77
2022/09/21 09:49:33;;;;;;;5.85;2.72;;;;;19.70;102185.00;;;;13063649;22;20191;-75
2022/09/21 09:54:35;;;;;;;3.75;2.33;;;;;19.80;102179.00;;;;13084254;22;20172;-77
2022/09/21 09:59:42;;;;;;;8.45;2.33;;;;;20.00;102185.00;;;;13035312;22;20171;-76
2022/09/21 10:05:07;;;;;;;6.00;2.25;;;;;20.30;102181.00;;;;13035339;22;20172;-76
2022/09/21 10:10:27;;;;;;;7.53;1.88;;;;;20.60;102182.00;;;;13035400;22;20704;-76
2022/09/21 10:15:29;;;;;;;4.43;1.92;;;;;20.80;102183.00;;;;13009647;22;20174;-76
2022/09/21 10:20:31;;;;;;;3.85;1.67;;;;;21.20;102174.00;;;;13061924;22;20174;-76
2022/09/21 10:25:34;;;;;;;3.85;1.70;;;;;19.80;102182.00;;;;13084108;22;20183;-75
2022/09/21 10:30:41;;;;;;;4.93;1.42;;;;;20.60;102182.00;;;;13110933;22;20160;-75
2022/09/21 10:35:50;;;;;;;2.88;1.48;;;;;21.00;102169.00;;;;13082144;22;20186;-75
2022/09/21 10:40:52;;;;;;;1.95;1.30;;;;;20.60;102168.00;;;;13009774;22;20258;-75
2022/09/21 10:45:56;;;;;;;4.30;1.50;;;;;20.30;102172.00;;;;13083508;22;20799;-76
2022/09/21 10:50:57;;;;;;;3.15;1.77;;;;;19.00;102171.00;;;;13083765;22;20221;-75
2022/09/21 10:56:03;;;;;;;7.55;1.65;;;;;20.80;102155.00;;;;13036422;22;20494;-75
2022/09/21 11:01:24;;;;;;;5.82;1.65;;;;;22.40;102159.00;;;;13108212;22;20163;-76
2022/09/21 11:06:36;;;;;;;2.83;1.30;;;;;23.30;102163.00;;;;13038030;22;20747;-76
2022/09/21 11:11:57;;;;;;;4.72;1.27;;;;;22.60;102149.00;;;;13111849;22;20198;-76
2022/09/21 11:17:07;;;;;;;4.80;1.42;;;;;23.50;102138.00;;;;13036944;22;20167;-76
2022/09/21 11:22:37;;;;;;;6.22;1.30;;;;;24.40;102119.00;;;;13044093;22;20168;-76
2022/09/21 11:27:43;;;;;;;3.58;0.95;;;;;25.00;102120.00;;;;13116495;22;20446;-76
2022/09/21 11:33:04;;;;;;;3.45;1.08;;;;;25.40;102114.00;;;;13039896;22;20193;-76
2022/09/21 11:38:33;;;;;;;3.92;1.02;;;;;25.80;102117.00;;;;13016198;22;20171;-76
2022/09/21 11:43:57;;;;;;;5.05;1.27;;;;;25.70;102109.00;;;;13092277;22;20634;-77
2022/09/21 11:49:27;;;;;;;3.33;0.95;;;;;25.30;102106.00;;;;13044533;22;20187;-77
2022/09/21 11:54:51;;;;;;;4.63;1.30;;;;;23.50;102108.00;;;;13066775;22;20170;-77
2022/09/21 12:00:14;;;;;;;3.20;0.80;;;;;22.20;102108.00;;;;13090507;22;20168;-76
2022/09/21 12:05:22;;;;;;;3.03;1.05;;;;;21.60;102107.00;;;;13062202;22;20164;-76
2022/09/21 12:11:18;;;;;;;2.60;1.00;;;;;21.90;102094.00;;;;13066829;22;20191;-77
2022/09/21 12:16:36;;;;;;;2.50;1.02;;;;;21.30;102095.00;;;;12954436;22;20171;-77
2022/09/21 12:21:46;;;;;;;2.92;0.80;;;;;21.10;102086.00;;;;13016995;22;20182;-76
2022/09/21 12:27:02;;;;;;;3.42;1.27;;;;;23.00;102082.00;;;;13040201;22;20929;-76
2022/09/21 12:32:34;;;;;;;4.05;1.38;;;;;22.90;102085.00;;;;12985961;22;20254;-76
2022/09/21 12:37:58;;;;;;;4.53;1.00;;;;;22.10;102077.00;;;;13077340;22;21012;-76
2022/09/21 12:43:27;;;;;;;4.00;0.80;;;;;20.90;102081.00;;;;13113533;22;20164;-76
2022/09/21 12:48:37;;;;;;;3.92;0.95;;;;;19.90;102067.00;;;;13035730;22;20862;-76
2022/09/21 12:53:44;;;;;;;3.10;1.23;;;;;21.50;102061.00;;;;13037809;22;20180;-76
2022/09/21 12:59:24;;;;;;;5.40;1.30;;;;;22.90;102052.00;;;;13012588;22;20182;-76
2022/09/21 13:04:42;;;;;;;4.40;1.05;;;;;23.70;102048.00;;;;13071943;22;20164;-76
2022/09/21 13:09:45;;;;;;;3.05;1.30;;;;;24.30;102041.00;;;;13010949;22;20285;-76
2022/09/21 13:14:50;;;;;;;3.78;1.10;;;;;25.50;102035.00;;;;13088353;22;20167;-77
2022/09/21 13:20:17;;;;;;;2.95;1.15;;;;;24.40;102041.00;;;;13061809;22;20163;-76
2022/09/21 13:25:22;;;;;;;4.45;1.20;;;;;22.00;102033.00;;;;13084906;22;20163;-76
2022/09/21 13:30:34;;;;;;;3.33;0.98;;;;;21.00;102028.00;;;;13062599;22;20172;-76
2022/09/21 13:36:03;;;;;;;2.30;1.10;;;;;20.30;102018.00;;;;13037553;22;20175;-76
2022/09/21 13:41:16;;;;;;;2.03;1.17;;;;;20.10;102018.00;;;;13014750;22;20174;-76
2022/09/21 13:46:33;;;;;;;5.65;1.17;;;;;20.00;102024.00;;;;13035321;22;20191;-76
2022/09/21 13:52:06;;;;;;;2.33;1.00;;;;;20.00;102011.00;;;;13060531;22;20191;-76
2022/09/21 13:57:22;;;;;;;2.10;1.02;;;;;19.70;102018.00;;;;13056864;22;20224;-76
2022/09/21 14:02:31;;;;;;;5.28;1.05;;;;;19.50;102008.00;;;;13084750;22;20602;-76
2022/09/21 14:07:33;;;;;;;3.47;1.10;;;;;19.50;102005.00;;;;13011111;22;20814;-76
2022/09/21 14:12:43;;;;;;;3.75;1.10;;;;;20.10;101991.00;;;;13039750;22;20176;-76
2022/09/21 14:18:06;;;;;;;1.15;1.00;;;;;21.70;101996.00;;;;13056885;22;20167;-76
2022/09/21 14:23:26;;;;;;;2.88;0.95;;;;;22.40;101983.00;;;;13058651;22;20163;-76
2022/09/21 14:28:36;;;;;;;5.60;1.40;;;;;21.30;101986.00;;;;13076942;22;20183;-75
2022/09/21 14:33:47;;;;;;;4.47;1.20;;;;;20.70;101978.00;;;;13011617;22;20425;-76
2022/09/21 14:38:59;;;;;;;4.03;1.10;;;;;20.10;101972.00;;;;13036528;22;20171;-76
2022/09/21 14:44:01;;;;;;;3.53;1.40;;;;;19.30;101970.00;;;;13010837;22;20171;-76
2022/09/21 14:49:35;;;;;;;4.07;0.88;;;;;18.80;101966.00;;;;13010548;22;20201;-76
2022/09/21 14:54:45;;;;;;;6.18;1.20;;;;;18.30;101956.00;;;;13037300;22;20183;-76
2022/09/21 15:00:06;;;;;;;2.20;0.95;;;;;18.20;101962.00;;;;12986340;22;20179;-76
2022/09/21 15:05:36;;;;;;;2.65;0.80;;;;;18.00;101952.00;;;;13009351;22;20183;-76
2022/09/21 15:11:07;;;;;;;3.97;1.02;;;;;17.80;101947.00;;;;13063693;22;20207;-76
2022/09/21 15:16:37;;;;;;;5.68;1.02;;;;;18.10;101938.00;;;;13085339;22;20171;-76
2022/09/21 15:21:44;;;;;;;4.55;1.00;;;;;18.50;101944.00;;;;13037751;22;20276;-76
2022/09/21 15:26:48;;;;;;;1.08;0.73;;;;;18.90;101944.00;;;;13011461;22;20195;-76
2022/09/21 15:31:50;;;;;;;2.67;0.85;;;;;19.20;101937.00;;;;13011851;22;20184;-77
2022/09/21 15:36:52;;;;;;;3.42;0.93;;;;;19.30;101937.00;;;;13010764;22;20182;-77
2022/09/21 15:42:25;;;;;;;6.15;1.20;;;;;19.20;101932.00;;;;13112883;22;20498;-76
2022/09/21 15:47:27;;;;;;;3.50;1.02;;;;;19.00;101930.00;;;;12990306;22;20199;-76
2022/09/21 15:52:39;;;;;;;3.00;1.05;;;;;18.80;101938.00;;;;13037098;22;20221;-77
2022/09/21 15:57:42;;;;;;;2.13;1.20;;;;;18.40;101930.00;;;;13037747;22;20266;-76
2022/09/21 16:03:06;;;;;;;2.63;0.90;;;;;17.90;101925.00;;;;13036403;22;20756;-76
2022/09/21 16:08:46;;;;;;;2.70;0.75;;;;;17.40;101930.00;;;;13112869;22;20195;-76
2022/09/21 16:19:52;;;;;;;5.07;1.75;;;;;16.70;101928.00;;;;13038878;22;20190;-76
2022/09/21 16:24:57;;;;;;;3.50;1.52;;;;;16.40;101922.00;;;;13038397;22;20225;-76
2022/09/21 16:30:01;;;;;;;2.53;1.30;;;;;16.20;101927.00;;;;13036712;22;20195;-76
2022/09/21 16:35:30;;;;;;;6.93;1.33;;;;;15.90;101920.00;;;;13086601;22;20221;-76
2022/09/21 16:40:31;;;;;;;3.97;1.33;;;;;15.80;101923.00;;;;13039188;22;20171;-76
2022/09/21 16:45:34;;;;;;;2.70;1.50;;;;;15.70;101924.00;;;;13011368;22;20295;-75
2022/09/21 16:50:35;;;;;;;3.53;1.20;;;;;15.60;101925.00;;;;13083077;22;20168;-75
2022/09/21 16:55:36;;;;;;;7.68;2.20;;;;;15.40;101934.00;;;;13083818;22;20239;-76
2022/09/21 17:00:40;;;;;;;6.47;4.38;;;;;15.10;101925.00;;;;13010352;22;20175;-75
2022/09/21 17:05:41;;;;;;;6.40;3.67;;;;;14.90;101933.00;;;;13031881;22;20187;-76
2022/09/21 17:10:44;;;;;;;5.35;2.13;;;;;14.70;101933.00;;;;13033562;22;20219;-76
2022/09/21 17:15:47;;;;;;;5.28;1.75;;;;;14.50;101937.00;;;;13008143;22;20183;-76
2022/09/21 17:20:49;;;;;;;4.10;1.93;;;;;14.30;101932.00;;;;13036143;22;20184;-76
2022/09/21 17:25:51;;;;;;;8.70;2.23;;;;;14.10;101932.00;;;;13007633;22;20194;-75
2022/09/21 17:30:52;;;;;;;6.83;2.50;;;;;13.90;101939.00;;;;13036986;22;20183;-75
2022/09/21 17:35:55;;;;;;;6.30;2.40;;;;;13.70;101938.00;;;;13008844;22;20183;-76
2022/09/21 17:40:58;;;;;;;6.20;1.70;;;;;13.50;101941.00;;;;13111463;22;20175;-76
2022/09/21 17:46:09;;;;;;;4.90;1.80;;;;;13.40;101942.00;;;;13008088;22;20635;-76
2022/09/21 17:51:10;;;;;;;3.07;1.40;;;;;13.20;101941.00;;;;13087017;22;20168;-76
2022/09/21 17:56:29;;;;;;;2.60;1.73;;;;;13.00;101947.00;;;;13013742;22;20171;-76
2022/09/21 18:01:39;;;;;;;5.77;2.93;;;;;12.70;101955.00;;;;13085966;22;20167;-75
2022/09/21 18:06:42;;;;;;;6.30;2.20;;;;;12.50;101948.00;;;;13062494;22;20193;-75
2022/09/21 18:12:19;;;;;;;6.77;1.73;;;;;12.40;101955.00;;;;13014704;22;20196;-75
2022/09/21 18:17:34;;;;;;;6.23;2.17;;;;;12.20;101949.00;;;;13038878;22;20179;-75
2022/09/21 18:23:03;;;;;;;6.83;2.40;;;;;12.10;101952.00;;;;13076413;22;20167;-75
2022/09/21 18:28:22;;;;;;;3.07;1.50;;;;;11.90;101957.00;;;;13008624;22;20199;-75
2022/09/21 18:33:52;;;;;;;7.50;1.67;;;;;11.80;101958.00;;;;13080768;22;20501;-75
2022/09/21 18:38:59;;;;;;;7.90;1.83;;;;;11.70;101962.00;;;;13053845;22;20174;-75
2022/09/21 18:44:33;;;;;;;4.37;1.90;;;;;11.60;101965.00;;;;13052914;22;20168;-75
2022/09/21 18:49:56;;;;;;;4.43;2.00;;;;;11.40;101966.00;;;;13007718;22;20199;-75
2022/09/21 18:54:58;;;;;;;3.47;2.10;;;;;11.30;101971.00;;;;13007074;22;20171;-76
2022/09/21 18:59:59;;;;;;;3.60;1.70;;;;;11.20;101973.00;;;;13080899;22;20228;-76
2022/09/21 19:05:01;;;;;;;10.53;2.33;;;;;11.10;101971.00;;;;13033779;22;20635;-76
2022/09/21 19:10:24;;;;;;;4.27;1.80;;;;;11.00;101977.00;;;;13055535;22;20195;-76
2022/09/21 19:15:35;;;;;;;5.37;2.17;;;;;10.90;101976.00;;;;13081600;22;20169;-76
2022/09/21 19:21:08;;;;;;;5.57;2.10;;;;;10.80;101976.00;;;;13034208;22;20167;-76
2022/09/21 19:26:16;;;;;;;4.10;2.20;;;;;10.70;101977.00;;;;13028136;22;20179;-76
2022/09/21 19:31:18;;;;;;;3.47;2.40;;;;;10.60;101977.00;;;;13055430;22;20159;-76
2022/09/21 19:36:19;;;;;;;26.67;3.80;;;;;10.50;101987.00;;;;13033437;22;20258;-76
2022/09/21 19:41:34;;;;;;;5.63;2.33;;;;;10.40;101983.00;;;;13011490;22;20179;-76
2022/09/21 19:47:07;;;;;;;5.00;2.50;;;;;10.40;101987.00;;;;13038263;22;20195;-76
2022/09/21 19:52:14;;;;;;;4.57;2.37;;;;;10.30;101988.00;;;;13036025;22;20167;-75
2022/09/21 20:03:00;;;;;;;3.67;2.73;;;;;10.10;101976.00;;;;13087052;22;20164;-76
2022/09/21 20:08:10;;;;;;;4.80;3.30;;;;;10.00;101974.00;;;;13036595;22;20609;-76
2022/09/21 20:13:22;;;;;;;5.97;3.50;;;;;9.90;101982.00;;;;13056324;22;20552;-75
2022/09/21 20:18:36;;;;;;;8.00;3.80;;;;;9.80;101976.00;;;;13058561;22;20663;-76
2022/09/21 20:23:38;;;;;;;6.53;3.60;;;;;9.80;101968.00;;;;13009569;22;20191;-75
2022/09/21 20:28:40;;;;;;;6.60;4.23;;;;;9.70;101983.00;;;;13038034;22;20522;-76
2022/09/21 20:33:41;;;;;;;9.20;4.20;;;;;9.60;101979.00;;;;13039240;22;20163;-75
2022/09/21 20:38:42;;;;;;;8.13;4.13;;;;;9.50;101972.00;;;;13038320;22;20171;-76
2022/09/21 20:43:44;;;;;;;5.63;4.40;;;;;9.40;101976.00;;;;13060133;22;20167;-76
2022/09/21 20:48:45;;;;;;;8.43;4.90;;;;;9.30;101974.00;;;;13013165;22;20286;-75
2022/09/21 20:53:47;;;;;;;8.17;6.20;;;;;9.20;101972.00;;;;13037507;22;20250;-75
2022/09/21 20:58:48;;;;;;;11.57;7.63;;;;;9.20;101971.00;;;;13039240;22;20794;-76
2022/09/21 21:03:49;;;;;;;13.20;9.27;;;;;9.10;101957.00;;;;13037008;22;20232;-76
2022/09/21 21:08:51;;;;;;;8.93;7.23;;;;;9.00;101966.00;;;;13082444;22;20191;-75
2022/09/21 21:13:54;;;;;;;12.53;7.93;;;;;8.90;101967.00;;;;13037011;22;20222;-76
2022/09/21 21:18:55;;;;;;;10.10;8.30;;;;;8.90;101967.00;;;;13062077;22;20171;-76
2022/09/21 21:29:16;;;;;;;12.10;7.40;;;;;8.70;101965.00;;;;13040484;22;20197;-76
2022/09/21 21:34:17;;;;;;;11.40;7.17;;;;;8.70;101959.00;;;;13086014;22;20166;-75
2022/09/21 21:39:18;;;;;;;10.67;7.33;;;;;8.60;101964.00;;;;13015570;22;20170;-76
2022/09/21 21:44:20;;;;;;;10.80;8.20;;;;;8.60;101966.00;;;;13039966;22;20167;-76
2022/09/21 21:49:23;;;;;;;13.67;7.10;;;;;8.50;101966.00;;;;13039100;22;20203;-76
2022/09/21 21:54:24;;;;;;;9.53;7.47;;;;;8.50;101962.00;;;;13062230;22;20747;-75
2022/09/21 21:59:26;;;;;;;9.73;7.43;;;;;8.40;101953.00;;;;13062600;22;20622;-76
2022/09/21 22:04:27;;;;;;;15.97;7.83;;;;;8.30;101956.00;;;;13036108;22;20163;-75
2022/09/21 22:09:29;;;;;;;11.47;7.93;;;;;8.30;101954.00;;;;13042291;22;20229;-75
2022/09/21 22:14:30;;;;;;;11.40;6.80;;;;;8.20;101951.00;;;;13015539;22;20266;-75
2022/09/21 22:19:31;;;;;;;11.67;7.37;;;;;8.20;101944.00;;;;13087122;22;20199;-76
2022/09/21 22:24:33;;;;;;;10.03;6.23;;;;;8.10;101947.00;;;;13067408;22;20819;-76
2022/09/21 22:29:34;;;;;;;10.47;6.70;;;;;8.00;101938.00;;;;12986802;22;20222;-76
2022/09/21 22:34:36;;;;;;;7.83;5.43;;;;;8.00;101945.00;;;;13040380;22;20241;-76
2022/09/21 22:39:37;;;;;;;8.73;5.73;;;;;7.90;101940.00;;;;13035921;22;20194;-76
2022/09/21 22:44:38;;;;;;;8.03;5.80;;;;;7.90;101938.00;;;;13040051;22;20174;-75
2022/09/21 22:49:39;;;;;;;10.10;5.40;;;;;7.80;101947.00;;;;13065837;22;20221;-76
2022/09/21 22:54:40;;;;;;;11.33;6.37;;;;;7.70;101952.00;;;;13087604;22;20183;-76
2022/09/21 22:59:42;;;;;;;7.13;5.37;;;;;7.70;101938.00;;;;13034176;22;20557;-76
2022/09/21 23:04:44;;;;;;;8.93;5.20;;;;;7.70;101939.00;;;;13015984;22;20179;-76
2022/09/21 23:09:45;;;;;;;10.43;5.50;;;;;7.60;101937.00;;;;13015097;22;20195;-76
2022/09/21 23:14:47;;;;;;;8.50;6.13;;;;;7.60;101926.00;;;;13035481;22;20228;-76
2022/09/21 23:19:48;;;;;;;8.67;5.63;;;;;7.50;101931.00;;;;13014205;22;20178;-76
2022/09/21 23:24:49;;;;;;;8.33;5.77;;;;;7.50;101929.00;;;;13038619;22;20258;-76
2022/09/21 23:29:50;;;;;;;9.93;6.37;;;;;7.40;101920.00;;;;13087932;22;20191;-76
2022/09/21 23:34:51;;;;;;;10.10;6.37;;;;;7.40;101919.00;;;;13087677;22;20170;-76
2022/09/21 23:39:53;;;;;;;11.83;7.27;;;;;7.30;101918.00;;;;13059168;22;20206;-76
2022/09/21 23:44:54;;;;;;;11.20;7.00;;;;;7.30;101917.00;;;;13039924;22;20174;-76
2022/09/21 23:49:55;;;;;;;8.73;6.47;;;;;7.30;101909.00;;;;13061223;22;20255;-76
2022/09/21 23:54:56;;;;;;;12.43;7.20;;;;;7.20;101898.00;;;;13060128;22;20167;-76
2022/09/21 23:59:57;;;;;;;12.47;7.30;;;;;7.20;101905.00;;;;13060338;22;20166;-76
